Aérodrome :
LOGIN :

S'inscrire | Disclaimer

   EN    FR    IT 

 










Légende :    VFR   VFR Marginal   IFR   IFR Intensif   IFR Très Intensif
Visi : 
Plafond : 
>= 8 km
>= 3000ft
5 à 8 km
1000 à 3000 ft
1500m à 5 km
500 à 1000 ft
800 à 1500m
200 à 500 ft
< 800m
< 200 ft
Symboles :   Orages  Brouillard  Fortes neiges  Fortes précipitations  Vent > 20 kt
SIGMETs :   Divers  Orages  Givrage  Turbulence  Onde Orograph.  Cendres Volcan.






- Altitude de l'aérodrome : 364 ft
- Code IATA : FRA


EDDF - Frankfurt Int.

DERNIER METAR :
  • 231250Z 18004KT 150V210 9999 -RADZ FEW006 SCT011 BKN032 04/02 Q0996 TEMPO BKN010

METARs EXPIRÉS :
  • 231220Z 18005KT 9999 -RADZ FEW005 SCT013 BKN030 04/03 Q0997 TEMPO BKN010
  • 231150Z 17006KT 140V200 9999 -DZ FEW005 BKN015 04/02 Q0997 TEMPO BKN010
  • 231120Z 17006KT 9999 -DZ FEW004 BKN017 04/02 Q0998 TEMPO BKN010
  • 231050Z 16005KT 9999 FEW004 BKN019 03/02 Q0998 NOSIG
  • 231020Z 18005KT 7000 -DZ FEW007 BKN013 03/02 Q0998 BECMG BKN015

TAF TAF EDDF
Valide du 23 à 12h jusqu'au 24 à 18h UTC


231100Z 2312/2418 17005KT 9999 BKN015
PROB30
TEMPO 2312/2314 BKN008
BECMG 2315/2317 10005KT FEW030
TEMPO 2319/2324 RA BKN020
BECMG 2400/2403 18004KT BKN010
TEMPO 2400/2406 3000 SNRA BKN009
BECMG 2403/2406 26010KT
PROB30
TEMPO 2403/2406 1500 SN BKN004
BECMG 2406/2408 BKN025
TEMPO 2406/2409 4000 -SHSN BKN014CB
TEMPO 2409/2416 27015G25KT
BECMG 2416/2418 24005KT



MET'MAP, la Météo Aéronautique d'un coup d'oeil ! - Copyright ORBIFLY Décembre 2007 - Disclaimer

ORBIFLY MET'MAP TEAM :

Programmation & Développement : Alexandra Zaïnal
Sur une idée originale de : Baudouin d'Aumeries
Assistance à la programmation : Marc-Olivier Méhu
Soutien technique & logistique : Manuel Goepfert

Contact : metmap@orbifly.com




SOURCES & CREDITS :

   NOAA